KAR483 URSS-UWLL
Flight info
| Callsign | KAR483 |
|---|---|
| Flight time | N/A |
| Altitude | 34000 |
| Route | ADNET1D ADNET W79 NZ B145 ER G128 ST G900 KR P135 DAFOS T789 NEPNI NEPNI1F |
| Aircraft | B739/M-VGDW/C |
Departure
| Time | N/A |
|---|---|
| Airport | Sochi International Airport (URSS) |
Arrival
| Time | 2026-04-30 18:42 |
|---|---|
| Airport | Ulyanovsk Baratayevka Airport (UWLL) |
| Time | Latitude | Longitude | Altitude | Speed | Heading |
|---|---|---|---|---|---|
| 2026-04-30 17:39 | 48.80502 | 42.72300 | 34188 ft | 506 kts | 44° |
| 2026-04-30 17:42 | 49.04257 | 43.11764 | 34186 ft | 506 kts | 45° |
| 2026-04-30 17:43 | 49.16078 | 43.31627 | 34181 ft | 505 kts | 45° |
| 2026-04-30 17:44 | 49.30178 | 43.55523 | 34167 ft | 504 kts | 45° |
| 2026-04-30 17:47 | 49.51178 | 43.91417 | 34163 ft | 500 kts | 42° |
| 2026-04-30 17:48 | 49.62269 | 44.04017 | 34169 ft | 494 kts | 31° |
| 2026-04-30 17:48 | 49.70742 | 44.13111 | 34161 ft | 494 kts | 32° |
| 2026-04-30 17:50 | 49.93168 | 44.37810 | 34158 ft | 494 kts | 32° |
| 2026-04-30 17:52 | 50.09963 | 44.56490 | 33764 ft | 497 kts | 33° |
| 2026-04-30 17:53 | 50.23761 | 44.71967 | 33148 ft | 487 kts | 33° |
| 2026-04-30 17:54 | 50.34733 | 44.84349 | 33144 ft | 486 kts | 33° |
| 2026-04-30 17:56 | 50.56659 | 45.09316 | 33138 ft | 489 kts | 34° |
| 2026-04-30 17:58 | 50.73150 | 45.28290 | 33124 ft | 489 kts | 34° |
| 2026-04-30 18:00 | 50.94930 | 45.54177 | 33119 ft | 491 kts | 37° |
| 2026-04-30 18:01 | 51.09040 | 45.69120 | 33113 ft | 487 kts | 22° |
| 2026-04-30 18:02 | 51.27500 | 45.82713 | 33118 ft | 487 kts | 24° |
| 2026-04-30 18:04 | 51.45888 | 45.96674 | 33105 ft | 487 kts | 24° |
| 2026-04-30 18:06 | 51.70186 | 46.16047 | 33106 ft | 488 kts | 26° |
| 2026-04-30 18:08 | 51.91309 | 46.33584 | 33087 ft | 487 kts | 26° |
| 2026-04-30 18:10 | 52.15314 | 46.53737 | 33082 ft | 485 kts | 27° |
| 2026-04-30 18:11 | 52.36078 | 46.71375 | 33070 ft | 464 kts | 27° |
| 2026-04-30 18:13 | 52.50366 | 46.83623 | 33082 ft | 464 kts | 27° |
| 2026-04-30 18:14 | 52.64654 | 46.95958 | 33077 ft | 466 kts | 27° |
| 2026-04-30 18:15 | 52.73298 | 47.03466 | 32623 ft | 475 kts | 27° |
| 2026-04-30 18:15 | 52.81108 | 47.10278 | 30747 ft | 476 kts | 29° |
| 2026-04-30 18:16 | 52.87163 | 47.14003 | 30315 ft | 457 kts | 11° |
| 2026-04-30 18:16 | 52.94598 | 47.15122 | 29668 ft | 460 kts | 0° |
| 2026-04-30 18:17 | 52.96714 | 47.15230 | 29112 ft | 456 kts | 0° |
| 2026-04-30 18:17 | 52.99865 | 47.15361 | 28429 ft | 446 kts | 360° |
| 2026-04-30 18:17 | 53.05803 | 47.15629 | 27884 ft | 413 kts | 0° |
| 2026-04-30 18:18 | 53.08660 | 47.15779 | 27138 ft | 410 kts | 0° |
| 2026-04-30 18:18 | 53.11546 | 47.15942 | 26386 ft | 409 kts | 0° |
| 2026-04-30 18:18 | 53.14337 | 47.16106 | 25734 ft | 406 kts | 0° |
| 2026-04-30 18:18 | 53.17146 | 47.16276 | 25116 ft | 402 kts | 0° |
| 2026-04-30 18:19 | 53.19929 | 47.16447 | 24516 ft | 398 kts | 0° |
| 2026-04-30 18:19 | 53.22687 | 47.16617 | 23921 ft | 395 kts | 0° |
| 2026-04-30 18:19 | 53.25413 | 47.16785 | 23503 ft | 385 kts | 0° |
| 2026-04-30 18:19 | 53.28034 | 47.16949 | 23370 ft | 367 kts | 0° |
| 2026-04-30 18:20 | 53.30531 | 47.17106 | 23246 ft | 351 kts | 360° |
| 2026-04-30 18:20 | 53.32934 | 47.17256 | 22945 ft | 341 kts | 360° |
| 2026-04-30 18:20 | 53.35293 | 47.17400 | 22441 ft | 338 kts | 360° |
| 2026-04-30 18:20 | 53.37646 | 47.17543 | 21916 ft | 336 kts | 360° |
| 2026-04-30 18:21 | 53.39958 | 47.17353 | 21376 ft | 329 kts | 341° |
| 2026-04-30 18:21 | 53.41985 | 47.15817 | 20866 ft | 313 kts | 315° |
| 2026-04-30 18:21 | 53.43500 | 47.13383 | 20432 ft | 301 kts | 304° |
| 2026-04-30 18:21 | 53.44872 | 47.10755 | 19940 ft | 298 kts | 303° |
| 2026-04-30 18:22 | 53.46209 | 47.08106 | 19479 ft | 296 kts | 303° |
| 2026-04-30 18:22 | 53.48800 | 47.02903 | 18859 ft | 280 kts | 302° |
| 2026-04-30 18:22 | 53.50037 | 47.00413 | 18485 ft | 277 kts | 302° |
| 2026-04-30 18:23 | 53.51269 | 46.97912 | 17995 ft | 276 kts | 302° |
| 2026-04-30 18:23 | 53.52483 | 46.95429 | 17535 ft | 274 kts | 302° |
| 2026-04-30 18:23 | 53.53681 | 46.92967 | 17110 ft | 271 kts | 302° |
| 2026-04-30 18:23 | 53.54863 | 46.90529 | 16660 ft | 268 kts | 302° |
| 2026-04-30 18:24 | 53.57621 | 46.86451 | 15881 ft | 275 kts | 345° |
| 2026-04-30 18:24 | 53.59521 | 46.86512 | 15607 ft | 277 kts | 17° |
| 2026-04-30 18:24 | 53.61268 | 46.87860 | 15349 ft | 278 kts | 38° |
| 2026-04-30 18:25 | 53.62675 | 46.90080 | 15073 ft | 277 kts | 51° |
| 2026-04-30 18:25 | 53.65155 | 46.94939 | 14471 ft | 270 kts | 52° |
| 2026-04-30 18:25 | 53.66356 | 46.97319 | 14199 ft | 269 kts | 52° |
| 2026-04-30 18:26 | 53.68806 | 47.02131 | 13625 ft | 269 kts | 52° |
| 2026-04-30 18:26 | 53.70022 | 47.04504 | 13311 ft | 265 kts | 52° |
| 2026-04-30 18:26 | 53.71224 | 47.06845 | 13038 ft | 262 kts | 52° |
| 2026-04-30 18:27 | 53.73617 | 47.11505 | 12476 ft | 262 kts | 52° |
| 2026-04-30 18:27 | 53.74806 | 47.13818 | 12197 ft | 259 kts | 52° |
| 2026-04-30 18:28 | 53.77152 | 47.18392 | 11659 ft | 256 kts | 52° |
| 2026-04-30 18:28 | 53.78316 | 47.20652 | 11386 ft | 254 kts | 51° |
| 2026-04-30 18:28 | 53.80692 | 47.24990 | 10856 ft | 252 kts | 50° |
| 2026-04-30 18:29 | 53.81903 | 47.27175 | 10592 ft | 250 kts | 51° |
| 2026-04-30 18:29 | 53.85424 | 47.33558 | 9780 ft | 246 kts | 51° |
| 2026-04-30 18:30 | 53.87735 | 47.37767 | 9249 ft | 241 kts | 50° |
| 2026-04-30 18:30 | 53.89992 | 47.41887 | 8755 ft | 236 kts | 50° |
| 2026-04-30 18:31 | 53.91103 | 47.43921 | 8483 ft | 234 kts | 50° |
| 2026-04-30 18:31 | 53.93296 | 47.47939 | 7994 ft | 229 kts | 49° |
| 2026-04-30 18:32 | 53.95452 | 47.51895 | 7487 ft | 226 kts | 49° |
| 2026-04-30 18:32 | 53.96518 | 47.53854 | 7253 ft | 224 kts | 49° |
| 2026-04-30 18:32 | 53.98591 | 47.57669 | 6938 ft | 222 kts | 49° |
| 2026-04-30 18:33 | 53.99701 | 47.59719 | 6708 ft | 253 kts | 49° |
| 2026-04-30 18:33 | 54.02173 | 47.64282 | 6041 ft | 273 kts | 48° |
| 2026-04-30 18:33 | 54.03451 | 47.66642 | 5708 ft | 267 kts | 48° |
| 2026-04-30 18:34 | 54.04685 | 47.68921 | 5398 ft | 256 kts | 48° |
| 2026-04-30 18:34 | 54.07081 | 47.73356 | 4736 ft | 254 kts | 48° |
| 2026-04-30 18:34 | 54.08275 | 47.75570 | 4412 ft | 252 kts | 48° |
| 2026-04-30 18:35 | 54.09457 | 47.77765 | 4112 ft | 250 kts | 48° |
| 2026-04-30 18:35 | 54.10626 | 47.79934 | 3812 ft | 247 kts | 47° |
| 2026-04-30 18:35 | 54.11785 | 47.82088 | 3520 ft | 245 kts | 47° |
| 2026-04-30 18:36 | 54.14058 | 47.86321 | 2908 ft | 242 kts | 47° |
| 2026-04-30 18:36 | 54.15180 | 47.88459 | 2577 ft | 234 kts | 53° |
| 2026-04-30 18:36 | 54.15601 | 47.93502 | 2322 ft | 218 kts | 105° |
| 2026-04-30 18:37 | 54.14928 | 47.95895 | 2271 ft | 230 kts | 118° |
| 2026-04-30 18:37 | 54.14063 | 47.98240 | 2167 ft | 235 kts | 120° |
| 2026-04-30 18:37 | 54.13183 | 48.00572 | 2117 ft | 231 kts | 120° |
| 2026-04-30 18:37 | 54.12384 | 48.02932 | 2109 ft | 229 kts | 106° |
| 2026-04-30 18:38 | 54.12360 | 48.05512 | 2112 ft | 215 kts | 69° |
| 2026-04-30 18:38 | 54.13159 | 48.07534 | 2114 ft | 201 kts | 42° |
| 2026-04-30 18:38 | 54.14269 | 48.08903 | 2112 ft | 194 kts | 33° |
| 2026-04-30 18:38 | 54.15393 | 48.10124 | 2116 ft | 187 kts | 33° |
| 2026-04-30 18:39 | 54.16464 | 48.11254 | 2121 ft | 175 kts | 31° |
| 2026-04-30 18:39 | 54.17491 | 48.12306 | 2132 ft | 169 kts | 32° |
| 2026-04-30 18:39 | 54.18450 | 48.13325 | 2118 ft | 155 kts | 33° |
| 2026-04-30 18:39 | 54.19321 | 48.14261 | 2079 ft | 142 kts | 33° |
| 2026-04-30 18:40 | 54.20149 | 48.15154 | 1863 ft | 138 kts | 33° |
| 2026-04-30 18:40 | 54.20963 | 48.16032 | 1673 ft | 139 kts | 33° |
| 2026-04-30 18:40 | 54.21789 | 48.16923 | 1475 ft | 141 kts | 33° |
| 2026-04-30 18:40 | 54.22625 | 48.17824 | 1282 ft | 143 kts | 32° |
| 2026-04-30 18:41 | 54.23472 | 48.18736 | 1074 ft | 144 kts | 32° |
| 2026-04-30 18:41 | 54.24315 | 48.19643 | 885 ft | 143 kts | 31° |
| 2026-04-30 18:41 | 54.25161 | 48.20557 | 674 ft | 144 kts | 33° |
| 2026-04-30 18:41 | 54.26007 | 48.21475 | 487 ft | 143 kts | 32° |
| 2026-04-30 18:42 | 54.26788 | 48.22310 | 432 ft | 118 kts | 32° |
| 2026-04-30 18:42 | 54.27712 | 48.23304 | 408 ft | 48 kts | 32° |
| 2026-04-30 18:42 | 54.27932 | 48.23540 | 395 ft | 29 kts | 32° |
| 2026-04-30 18:45 | 54.28544 | 48.23227 | 372 ft | 8 kts | 353° |
| 2026-04-30 18:45 | 54.28558 | 48.23276 | 373 ft | 5 kts | 108° |
| 2026-04-30 18:45 | 54.28539 | 48.23331 | 373 ft | 5 kts | 122° |
| 2026-04-30 18:46 | 54.28537 | 48.23338 | 373 ft | 0 kts | 122° |